Impacts TAF Board
For situational awareness. Not to be used for flight planning purposes.
IDs:

KMSP - Minneapolis-St Paul, MN, US

Issued at 0520 UTC 20 Oct 2018
Updated at 0611 UTC 20 Oct 2018
Potential Impact None Slight Moderate High
Time0553Z 20/07Z 20/08Z 20/09Z 20/10Z 20/11Z 20/12Z 20/13Z 20/14Z 20/15Z 20/16Z 20/17Z 20/18Z 20/19Z>>
Type OBS PRVL PRVL PRVL PRVL PRVL PRVL PRVL PRVL PRVL PRVL PRVL PRVL PRVL
VIS 10 >6 >6 >6 >6 >6 >6 >6 >6 >6 >6 >6 >6 >6
CIG -- -- 70 70 70 40 40 40 -- -- -- -- -- --
Cover CLR SKC BKN BKN BKN BKN BKN BKN SCT SCT SCT SCT SCT SCT
FltCat VFR VFR VFR VFR VFR VFR VFR VFR VFR VFR VFR VFR VFR VFR
WX -- -- -- -- -- -- -- -- -- -- -- -- -- --
WDir 290 280 300 300 300 300 300 300 320 320 320 320 320 320
WSpd 12 8 13 13 13 19 19 19 22 22 22 22 22 22
WGst -- -- -- -- -- 27 27 27 33 33 33 33 33 33
Raw TAF
KMSP 200520Z 2006/2112 28008KT P6SM SKC
  FM200800 30013KT P6SM BKN070
  FM201100 30019G27KT P6SM BKN040
  FM201400 32022G33KT P6SM SCT040
  FM202000 32016G25KT P6SM SKC
  FM210100 30005KT P6SM SKC
  FM210900 19004KT P6SM SKC


Raw METAR
KMSP 200553Z 29012KT 10SM CLR 09/02 A2991 RMK AO2 SLP129 T00940017 10144 20094 401830094 58001
KMSP 200453Z 28009KT 10SM CLR 09/02 A2991 RMK AO2 SLP132 T00940022
KMSP 200353Z 28008KT 10SM CLR 10/02 A2992 RMK AO2 SLP133 T01000017

METAR Board
Radar Display
Forecast Discussion
For situational awareness. Not to be used for flight planning purposes.